createdAt,value
2018-05-07T00:02:06.653Z,26.00
2018-05-07T00:04:36.439Z,26.10
2018-05-07T00:07:06.344Z,26.10
2018-05-07T00:09:36.221Z,26.20
2018-05-07T00:12:06.102Z,26.10
2018-05-07T00:14:36.015Z,25.80
2018-05-07T00:17:05.823Z,25.50
2018-05-07T00:19:35.636Z,25.20
2018-05-07T00:22:05.380Z,25.20
2018-05-07T00:24:35.202Z,25.20
2018-05-07T00:27:05.067Z,25.30
2018-05-07T00:29:35.600Z,25.20
2018-05-07T00:32:05.441Z,25.20
2018-05-07T00:34:35.169Z,24.80
2018-05-07T00:37:04.941Z,24.60
2018-05-07T00:39:35.176Z,24.40
2018-05-07T00:42:04.933Z,24.10
2018-05-07T00:44:34.700Z,23.80
2018-05-07T00:47:05.238Z,23.50
2018-05-07T00:49:35.041Z,23.50
2018-05-07T00:52:04.836Z,23.50
2018-05-07T00:54:40.384Z,23.20
2018-05-07T00:57:10.199Z,23.00
2018-05-07T00:59:39.907Z,22.90
2018-05-07T01:02:09.946Z,22.80
2018-05-07T01:04:39.796Z,22.70
2018-05-07T01:07:09.585Z,22.60
2018-05-07T01:09:39.459Z,22.40
2018-05-07T01:12:09.308Z,22.30
2018-05-07T01:14:40.655Z,22.10
2018-05-07T01:17:12.005Z,21.80
2018-05-07T01:19:41.789Z,21.80
2018-05-07T01:22:11.552Z,21.70
2018-05-07T01:24:41.290Z,21.70
2018-05-07T01:27:11.108Z,21.60
2018-05-07T01:29:41.075Z,21.60
2018-05-07T01:32:10.802Z,21.80
2018-05-07T01:34:40.556Z,21.90
2018-05-07T01:37:10.326Z,21.90
2018-05-07T01:39:40.158Z,21.70
2018-05-07T01:42:10.335Z,21.50
2018-05-07T01:44:40.083Z,21.40
2018-05-07T01:47:10.002Z,21.30
2018-05-07T01:49:40.581Z,21.00
2018-05-07T01:52:10.377Z,20.90
2018-05-07T01:54:40.946Z,20.80
2018-05-07T01:57:11.142Z,20.90
2018-05-07T01:59:40.878Z,20.70
2018-05-07T02:02:10.693Z,20.50
2018-05-07T02:04:40.416Z,20.60
2018-05-07T02:07:10.245Z,20.50
2018-05-07T02:09:40.083Z,20.60
2018-05-07T02:12:09.920Z,20.50
2018-05-07T02:14:39.735Z,20.50
2018-05-07T02:17:09.529Z,20.50
2018-05-07T02:19:39.269Z,20.40
2018-05-07T02:22:10.907Z,20.40
2018-05-07T02:24:40.671Z,20.40
2018-05-07T02:27:11.071Z,20.40
2018-05-07T02:29:41.884Z,20.10
2018-05-07T02:32:11.579Z,20.10
2018-05-07T02:34:41.558Z,20.10
2018-05-07T02:37:11.273Z,20.10
2018-05-07T02:39:41.565Z,20.00
2018-05-07T02:42:11.352Z,19.80
2018-05-07T02:44:41.141Z,19.70
2018-05-07T02:47:10.935Z,19.60
2018-05-07T02:49:40.733Z,19.50
2018-05-07T02:52:10.727Z,19.20
2018-05-07T02:54:40.573Z,19.10
2018-05-07T02:57:10.337Z,18.90
2018-05-07T02:59:40.206Z,18.70
2018-05-07T03:02:10.033Z,18.50
2018-05-07T03:04:39.758Z,18.30
2018-05-07T03:07:09.529Z,18.10
2018-05-07T03:09:40.379Z,18.00
2018-05-07T03:12:10.274Z,17.80
2018-05-07T03:14:40.871Z,17.50
2018-05-07T03:17:10.704Z,17.50
2018-05-07T03:19:40.468Z,17.30
2018-05-07T03:22:10.460Z,17.20
2018-05-07T03:24:40.185Z,17.10
2018-05-07T03:27:09.948Z,16.90
2018-05-07T03:29:39.722Z,16.70
2018-05-07T03:32:09.468Z,16.50
2018-05-07T03:34:41.110Z,16.40
2018-05-07T03:37:10.903Z,16.30
2018-05-07T03:39:40.649Z,16.20
2018-05-07T03:42:11.268Z,16.00
2018-05-07T03:44:41.183Z,16.00
2018-05-07T03:47:10.977Z,15.90
2018-05-07T03:49:40.716Z,15.80
2018-05-07T03:52:10.467Z,15.80
2018-05-07T03:54:40.253Z,15.70
2018-05-07T03:57:10.068Z,15.60
2018-05-07T03:59:39.832Z,15.50
2018-05-07T04:02:09.628Z,15.40
2018-05-07T04:04:39.458Z,15.30
2018-05-07T04:07:09.263Z,15.40
2018-05-07T04:09:39.019Z,15.20
2018-05-07T04:12:08.815Z,15.10
2018-05-07T04:14:38.577Z,15.00
2018-05-07T04:17:19.477Z,15.00
2018-05-07T04:20:00.233Z,14.80
2018-05-07T04:22:41.068Z,14.70
2018-05-07T04:25:10.948Z,14.70
2018-05-07T04:27:41.220Z,14.50
2018-05-07T04:30:10.959Z,14.50
2018-05-07T04:32:40.706Z,14.40
2018-05-07T04:35:10.441Z,14.40
2018-05-07T04:37:40.318Z,14.30
2018-05-07T04:40:10.153Z,14.30
2018-05-07T04:42:39.957Z,14.20
2018-05-07T04:45:09.861Z,14.10
2018-05-07T04:47:39.787Z,14.00
2018-05-07T04:50:09.573Z,13.90
2018-05-07T04:52:39.323Z,13.90
2018-05-07T04:55:09.822Z,13.80
2018-05-07T04:57:40.345Z,13.70
2018-05-07T05:00:10.137Z,13.70
2018-05-07T05:02:39.956Z,13.70
2018-05-07T05:05:09.815Z,13.60
2018-05-07T05:07:39.597Z,13.60
2018-05-07T05:10:09.415Z,13.50
2018-05-07T05:12:39.165Z,13.50
2018-05-07T05:15:09.204Z,13.40
2018-05-07T05:17:38.924Z,13.40
2018-05-07T05:20:08.674Z,13.30
2018-05-07T05:22:38.469Z,13.30
2018-05-07T05:25:08.712Z,13.30
2018-05-07T05:27:38.487Z,13.20
2018-05-07T05:30:08.321Z,13.10
2018-05-07T05:32:38.063Z,13.10
2018-05-07T05:35:07.785Z,13.10
2018-05-07T05:37:38.420Z,13.00
2018-05-07T05:40:08.256Z,13.00
2018-05-07T05:42:38.021Z,13.00
2018-05-07T05:45:08.028Z,13.00
2018-05-07T05:47:37.743Z,13.00
2018-05-07T05:50:07.838Z,12.90
2018-05-07T05:52:37.566Z,12.90
2018-05-07T05:55:07.300Z,12.90
2018-05-07T05:57:37.033Z,12.80
2018-05-07T06:00:06.794Z,12.80
2018-05-07T06:02:36.610Z,12.80
2018-05-07T06:05:06.339Z,12.90
2018-05-07T06:07:36.119Z,12.90
2018-05-07T06:10:06.048Z,12.90
2018-05-07T06:12:35.772Z,13.00
2018-05-07T06:15:06.295Z,13.10
2018-05-07T06:17:36.987Z,13.20
2018-05-07T06:20:06.807Z,13.20
2018-05-07T06:22:36.531Z,13.20
2018-05-07T06:25:06.275Z,13.30
2018-05-07T06:27:36.016Z,13.30
2018-05-07T06:30:05.887Z,13.40
2018-05-07T06:32:35.692Z,13.40
2018-05-07T06:35:05.524Z,13.30
2018-05-07T06:37:35.295Z,13.30
2018-05-07T06:40:05.934Z,13.40
2018-05-07T06:42:35.735Z,13.40
2018-05-07T06:45:07.474Z,13.40
2018-05-07T06:47:37.261Z,13.40
2018-05-07T06:50:07.035Z,13.40
2018-05-07T06:52:36.974Z,13.40
2018-05-07T06:55:06.790Z,13.40
2018-05-07T06:57:36.588Z,13.50
2018-05-07T07:00:06.411Z,13.50
2018-05-07T07:02:37.052Z,13.50
2018-05-07T07:05:07.639Z,13.40
2018-05-07T07:07:37.569Z,13.40
2018-05-07T07:10:07.321Z,13.50
2018-05-07T07:12:37.089Z,13.40
2018-05-07T07:15:06.815Z,13.40
2018-05-07T07:17:36.572Z,13.30
2018-05-07T07:20:06.493Z,13.30
2018-05-07T07:22:36.244Z,13.40
2018-05-07T07:25:05.929Z,13.30
2018-05-07T07:27:35.685Z,13.30
2018-05-07T07:30:05.436Z,13.30
2018-05-07T07:32:35.170Z,13.40
2018-05-07T07:35:04.912Z,13.30
2018-05-07T07:37:34.667Z,13.30
2018-05-07T07:40:04.430Z,13.30
2018-05-07T07:42:34.148Z,13.30
2018-05-07T07:45:04.605Z,13.40
2018-05-07T07:47:34.449Z,13.30
2018-05-07T07:50:04.242Z,13.40
2018-05-07T07:52:34.080Z,13.30
2018-05-07T07:55:03.819Z,13.30
2018-05-07T07:57:33.785Z,13.40
2018-05-07T08:00:03.551Z,13.40
2018-05-07T08:02:33.307Z,13.40
2018-05-07T08:05:03.013Z,13.40
2018-05-07T08:07:32.776Z,13.40
2018-05-07T08:10:02.588Z,13.40
2018-05-07T08:12:32.380Z,13.30
2018-05-07T08:15:02.157Z,13.40
2018-05-07T08:17:31.975Z,13.30
2018-05-07T08:20:01.939Z,13.30
2018-05-07T08:22:31.715Z,13.30
2018-05-07T08:25:01.465Z,13.30
2018-05-07T08:27:31.210Z,13.30
2018-05-07T08:30:01.040Z,13.30
2018-05-07T08:32:30.809Z,13.20
2018-05-07T08:35:01.545Z,13.20
2018-05-07T08:37:32.115Z,13.10
2018-05-07T08:40:01.885Z,13.10
2018-05-07T08:42:31.671Z,13.10
2018-05-07T08:45:01.418Z,13.20
2018-05-07T08:47:32.040Z,13.10
2018-05-07T08:50:01.832Z,13.10
2018-05-07T08:52:31.532Z,13.10
2018-05-07T08:55:01.305Z,13.10
2018-05-07T08:57:36.367Z,13.10
2018-05-07T09:00:06.071Z,13.10
2018-05-07T09:02:35.761Z,13.10
2018-05-07T09:05:05.532Z,13.10
2018-05-07T09:07:35.287Z,13.10
2018-05-07T09:10:05.041Z,13.10
2018-05-07T09:12:34.795Z,13.10
2018-05-07T09:15:04.511Z,13.10
2018-05-07T09:17:34.279Z,13.10
2018-05-07T09:20:04.570Z,13.00
2018-05-07T09:22:34.321Z,13.00
2018-05-07T09:25:03.858Z,13.00
2018-05-07T09:27:33.554Z,12.90
2018-05-07T09:30:03.269Z,12.90
2018-05-07T09:32:32.977Z,12.90
2018-05-07T09:35:02.671Z,12.90
2018-05-07T09:37:32.402Z,12.90
2018-05-07T09:40:02.189Z,12.90
2018-05-07T09:42:32.045Z,12.90
2018-05-07T09:45:01.779Z,12.90
2018-05-07T09:47:31.506Z,12.90
2018-05-07T09:50:01.241Z,12.90
2018-05-07T09:52:31.002Z,12.90
2018-05-07T09:55:00.818Z,12.90
2018-05-07T09:57:30.610Z,12.90
2018-05-07T10:00:00.343Z,12.70
2018-05-07T10:02:30.128Z,12.70
2018-05-07T10:04:59.817Z,12.70
2018-05-07T10:07:29.492Z,12.70
2018-05-07T10:09:59.256Z,12.70
2018-05-07T10:12:28.999Z,12.70
2018-05-07T10:14:58.722Z,12.60
2018-05-07T10:17:28.451Z,12.60
2018-05-07T10:19:58.194Z,12.60
2018-05-07T10:22:28.674Z,12.50
2018-05-07T10:24:58.535Z,12.50
2018-05-07T10:27:28.277Z,12.50
2018-05-07T10:29:57.839Z,12.50
2018-05-07T10:32:27.438Z,12.50
2018-05-07T10:34:56.991Z,12.50
2018-05-07T10:37:26.503Z,12.50
2018-05-07T10:39:56.059Z,12.50
2018-05-07T10:42:25.623Z,12.50
2018-05-07T10:44:55.234Z,12.40
2018-05-07T10:47:24.937Z,12.40
2018-05-07T10:49:54.469Z,12.50
2018-05-07T10:52:24.019Z,12.50
2018-05-07T10:54:54.445Z,12.40
2018-05-07T10:57:24.031Z,12.40
2018-05-07T10:59:53.553Z,12.50
2018-05-07T11:02:23.874Z,12.40
2018-05-07T11:04:54.151Z,12.40
2018-05-07T11:07:23.783Z,12.40
2018-05-07T11:09:53.404Z,12.50
2018-05-07T11:12:23.083Z,12.40
2018-05-07T11:14:52.603Z,12.40
2018-05-07T11:17:22.124Z,12.40
2018-05-07T11:19:51.715Z,12.40
2018-05-07T11:22:21.300Z,12.40
2018-05-07T11:24:50.818Z,12.40
2018-05-07T11:27:20.348Z,12.40
2018-05-07T11:29:49.858Z,12.40
2018-05-07T11:32:19.506Z,12.40
2018-05-07T11:34:49.011Z,12.30
2018-05-07T11:37:18.542Z,12.40
2018-05-07T11:39:48.082Z,12.30
2018-05-07T11:42:17.618Z,12.30
2018-05-07T11:44:47.926Z,12.30
2018-05-07T11:47:17.524Z,12.30
2018-05-07T11:49:47.052Z,12.20
2018-05-07T11:52:16.587Z,12.20
2018-05-07T11:54:46.093Z,12.10
2018-05-07T11:57:15.931Z,12.10
2018-05-07T11:59:45.582Z,12.20
2018-05-07T12:02:15.090Z,12.10
2018-05-07T12:04:45.414Z,12.10
2018-05-07T12:07:14.953Z,12.10
2018-05-07T12:09:44.466Z,12.10
2018-05-07T12:12:14.033Z,12.20
2018-05-07T12:14:43.569Z,12.10
2018-05-07T12:17:13.097Z,12.20
2018-05-07T12:19:42.807Z,12.20
2018-05-07T12:22:12.358Z,12.00
2018-05-07T12:24:42.655Z,12.00
2018-05-07T12:27:12.214Z,12.00
2018-05-07T12:29:41.887Z,12.00
2018-05-07T12:32:11.470Z,12.00
2018-05-07T12:34:41.019Z,12.00
2018-05-07T12:37:10.629Z,12.00
2018-05-07T12:39:40.142Z,12.00
2018-05-07T12:42:09.693Z,11.90
2018-05-07T12:44:39.340Z,11.90
2018-05-07T12:47:09.038Z,11.90
2018-05-07T12:49:39.317Z,11.90
2018-05-07T12:52:08.878Z,11.90
2018-05-07T12:54:39.195Z,11.90
2018-05-07T12:57:09.534Z,11.90
2018-05-07T12:59:39.810Z,11.90
2018-05-07T13:02:09.344Z,11.90
2018-05-07T13:04:39.645Z,12.00
2018-05-07T13:07:09.175Z,11.90
2018-05-07T13:09:38.736Z,11.90
2018-05-07T13:12:08.302Z,11.90
2018-05-07T13:14:37.840Z,11.90
2018-05-07T13:17:07.447Z,11.90
2018-05-07T13:19:36.952Z,11.90
2018-05-07T13:22:06.519Z,11.90
2018-05-07T13:24:36.047Z,11.90
2018-05-07T13:27:05.585Z,11.90
2018-05-07T13:29:35.085Z,12.00
2018-05-07T13:32:04.643Z,12.00
2018-05-07T13:34:34.173Z,12.00
2018-05-07T13:37:03.732Z,11.90
2018-05-07T13:39:33.246Z,11.80
2018-05-07T13:42:02.954Z,11.90
2018-05-07T13:44:32.500Z,11.90
2018-05-07T13:47:02.176Z,11.90
2018-05-07T13:49:32.184Z,11.90
2018-05-07T13:52:01.743Z,12.10
2018-05-07T13:54:31.327Z,12.10
2018-05-07T13:57:00.885Z,12.10
2018-05-07T13:59:30.399Z,12.20
2018-05-07T14:01:59.923Z,12.20
2018-05-07T14:04:29.422Z,12.10
2018-05-07T14:06:58.911Z,12.10
2018-05-07T14:09:28.402Z,12.00
2018-05-07T14:11:57.977Z,12.00
2018-05-07T14:14:27.503Z,12.10
2018-05-07T14:16:57.316Z,12.20
2018-05-07T14:19:26.879Z,12.20
2018-05-07T14:21:56.505Z,12.20
2018-05-07T14:24:26.134Z,12.30
2018-05-07T14:26:55.631Z,12.40
2018-05-07T14:29:25.207Z,12.50
2018-05-07T14:31:54.718Z,12.30
2018-05-07T14:34:24.259Z,12.30
2018-05-07T14:36:53.823Z,12.40
2018-05-07T14:39:23.318Z,12.40
2018-05-07T14:41:52.838Z,12.50
2018-05-07T14:44:22.383Z,12.60
2018-05-07T14:46:52.698Z,12.70
2018-05-07T14:49:22.216Z,12.70
2018-05-07T14:51:51.717Z,12.80
2018-05-07T14:54:21.214Z,12.80
2018-05-07T14:56:50.727Z,12.80
2018-05-07T14:59:21.013Z,12.90
2018-05-07T15:01:51.320Z,12.90
2018-05-07T15:04:20.827Z,12.90
2018-05-07T15:06:50.479Z,12.90
2018-05-07T15:09:20.014Z,12.90
2018-05-07T15:11:49.601Z,12.90
2018-05-07T15:14:24.730Z,13.00
2018-05-07T15:16:54.245Z,13.20
2018-05-07T15:19:23.762Z,13.30
2018-05-07T15:21:53.266Z,13.10
2018-05-07T15:24:22.788Z,13.20
2018-05-07T15:26:52.330Z,13.40
2018-05-07T15:29:21.975Z,13.50
2018-05-07T15:31:51.595Z,13.40
2018-05-07T15:34:21.112Z,13.50
2018-05-07T15:36:50.642Z,13.50
2018-05-07T15:39:20.189Z,13.60
2018-05-07T15:41:49.817Z,13.70
2018-05-07T15:44:19.388Z,13.70
2018-05-07T15:46:48.926Z,13.70
2018-05-07T15:49:18.517Z,13.80
2018-05-07T15:51:48.200Z,13.80
2018-05-07T15:54:17.843Z,13.90
2018-05-07T15:56:47.346Z,13.90
2018-05-07T15:59:16.898Z,13.90
2018-05-07T16:01:46.525Z,14.10
2018-05-07T16:04:16.024Z,14.10
2018-05-07T16:06:45.519Z,14.20
2018-05-07T16:09:15.038Z,14.40
2018-05-07T16:11:44.535Z,14.40
2018-05-07T16:14:14.037Z,14.50
2018-05-07T16:16:43.706Z,14.50
2018-05-07T16:19:13.250Z,14.60
2018-05-07T16:21:42.957Z,14.70
2018-05-07T16:24:12.474Z,14.60
2018-05-07T16:26:42.004Z,14.60
2018-05-07T16:29:11.557Z,14.70
2018-05-07T16:31:41.537Z,14.70
2018-05-07T16:34:11.783Z,14.70
2018-05-07T16:36:41.298Z,14.70
2018-05-07T16:39:11.639Z,14.80
2018-05-07T16:41:41.157Z,14.80
2018-05-07T16:44:10.686Z,15.00
2018-05-07T16:46:40.189Z,15.10
2018-05-07T16:49:09.700Z,15.20
2018-05-07T16:51:39.981Z,15.30
2018-05-07T16:54:09.474Z,15.30
2018-05-07T16:56:38.973Z,15.30
2018-05-07T16:59:08.502Z,15.00
2018-05-07T17:01:38.039Z,14.80
2018-05-07T17:04:07.560Z,14.90
2018-05-07T17:06:37.835Z,15.20
2018-05-07T17:09:07.677Z,15.20
2018-05-07T17:11:37.228Z,15.50
2018-05-07T17:14:06.791Z,15.60
2018-05-07T17:16:36.410Z,15.90
2018-05-07T17:19:06.359Z,16.10
2018-05-07T17:21:36.596Z,16.10
2018-05-07T17:24:06.127Z,16.20
2018-05-07T17:26:35.631Z,16.10
2018-05-07T17:29:05.167Z,16.10
2018-05-07T17:31:34.863Z,16.00
2018-05-07T17:34:04.676Z,16.20
2018-05-07T17:36:35.147Z,16.30
2018-05-07T17:39:05.030Z,16.30
2018-05-07T17:41:35.000Z,16.50
2018-05-07T17:44:15.858Z,16.70
2018-05-07T17:46:57.393Z,16.30
2018-05-07T17:49:27.105Z,16.30
2018-05-07T17:51:57.636Z,16.70
2018-05-07T17:54:28.222Z,16.60
2018-05-07T17:56:58.052Z,16.50
2018-05-07T17:59:27.808Z,16.70
2018-05-07T18:01:57.644Z,17.00
2018-05-07T18:04:27.393Z,17.30
2018-05-07T18:06:57.177Z,17.20
2018-05-07T18:09:26.983Z,17.10
2018-05-07T18:11:56.699Z,17.30
2018-05-07T18:14:26.971Z,17.40
2018-05-07T18:16:56.703Z,17.80
2018-05-07T18:19:26.430Z,17.70
2018-05-07T18:21:56.224Z,17.60
2018-05-07T18:24:26.015Z,17.70
2018-05-07T18:26:55.829Z,17.70
2018-05-07T18:29:26.322Z,17.60
2018-05-07T18:31:56.119Z,17.60
2018-05-07T18:34:26.011Z,17.50
2018-05-07T18:36:55.719Z,17.50
2018-05-07T18:39:25.499Z,17.80
2018-05-07T18:41:55.247Z,17.80
2018-05-07T18:44:25.954Z,17.70
2018-05-07T18:46:55.636Z,17.70
2018-05-07T18:49:25.361Z,18.00
2018-05-07T18:51:55.139Z,17.90
2018-05-07T18:54:24.863Z,17.90
2018-05-07T18:56:54.665Z,18.10
2018-05-07T18:59:24.396Z,18.20
2018-05-07T19:01:54.531Z,18.10
2018-05-07T19:04:24.656Z,18.00
2018-05-07T19:06:54.568Z,17.90
2018-05-07T19:09:24.260Z,18.00
2018-05-07T19:11:54.020Z,17.90
2018-05-07T19:14:23.821Z,18.00
2018-05-07T19:16:53.719Z,18.20
2018-05-07T19:19:24.200Z,17.80
2018-05-07T19:21:54.052Z,17.80
2018-05-07T19:24:24.048Z,18.00
2018-05-07T19:26:53.776Z,18.40
2018-05-07T19:29:23.526Z,18.10
2018-05-07T19:31:53.316Z,18.00
2018-05-07T19:34:23.030Z,18.20
2018-05-07T19:36:52.770Z,18.10
2018-05-07T19:39:22.467Z,18.20
2018-05-07T19:41:52.167Z,18.30
2018-05-07T19:44:21.871Z,18.70
2018-05-07T19:46:51.642Z,18.90
2018-05-07T19:49:21.653Z,18.90
2018-05-07T19:51:51.390Z,19.00
2018-05-07T19:54:21.146Z,18.80
2018-05-07T19:56:50.971Z,19.00
2018-05-07T19:59:20.945Z,19.20
2018-05-07T20:01:50.779Z,19.30
2018-05-07T20:04:20.613Z,19.40
2018-05-07T20:06:50.464Z,19.30
2018-05-07T20:09:20.249Z,19.40
2018-05-07T20:11:50.071Z,19.30
2018-05-07T20:14:19.870Z,19.10
2018-05-07T20:16:49.676Z,19.20
2018-05-07T20:19:19.447Z,19.50
2018-05-07T20:21:49.219Z,19.60
2018-05-07T20:24:23.057Z,19.90
2018-05-07T20:26:52.853Z,19.80
2018-05-07T20:29:22.567Z,19.60
2018-05-07T20:31:52.306Z,19.60
2018-05-07T20:34:22.077Z,19.30
2018-05-07T20:36:51.892Z,19.20
2018-05-07T20:39:21.685Z,18.80
2018-05-07T20:41:51.571Z,18.80
2018-05-07T20:44:21.307Z,18.70
2018-05-07T20:46:51.091Z,18.60
2018-05-07T20:49:20.808Z,18.70
2018-05-07T20:51:50.611Z,18.70
2018-05-07T20:54:20.338Z,18.50
2018-05-07T20:56:50.154Z,18.30
2018-05-07T20:59:20.006Z,18.10
2018-05-07T21:01:49.986Z,18.00
2018-05-07T21:04:19.732Z,18.10
2018-05-07T21:06:49.512Z,18.20
2018-05-07T21:09:19.200Z,18.50
2018-05-07T21:11:49.276Z,18.60
2018-05-07T21:14:19.038Z,18.60
2018-05-07T21:16:48.760Z,18.80
2018-05-07T21:19:18.482Z,18.70
2018-05-07T21:21:48.275Z,18.40
2018-05-07T21:24:18.014Z,18.40
2018-05-07T21:26:47.744Z,18.60
2018-05-07T21:29:17.476Z,18.70
2018-05-07T21:31:47.388Z,18.70
2018-05-07T21:34:17.125Z,18.70
2018-05-07T21:36:46.827Z,18.80
2018-05-07T21:39:16.576Z,19.20
2018-05-07T21:41:46.455Z,19.40
2018-05-07T21:44:16.227Z,19.50
2018-05-07T21:46:45.989Z,19.60
2018-05-07T21:49:15.776Z,19.60
2018-05-07T21:51:45.594Z,19.70
2018-05-07T21:54:15.292Z,19.90
2018-05-07T21:56:45.803Z,20.10
2018-05-07T21:59:15.538Z,20.10
2018-05-07T22:01:45.333Z,20.10
2018-05-07T22:04:15.036Z,20.00
2018-05-07T22:06:44.779Z,20.20
2018-05-07T22:09:14.542Z,20.40
2018-05-07T22:11:44.393Z,20.40
2018-05-07T22:14:14.432Z,20.30
2018-05-07T22:16:44.224Z,20.60
2018-05-07T22:19:14.089Z,20.60
2018-05-07T22:21:43.856Z,20.60
2018-05-07T22:24:13.611Z,20.40
2018-05-07T22:26:43.405Z,20.60
2018-05-07T22:29:13.177Z,20.70
2018-05-07T22:31:43.735Z,20.60
2018-05-07T22:34:13.554Z,20.70
2018-05-07T22:36:43.280Z,20.90
2018-05-07T22:39:13.027Z,20.90
2018-05-07T22:41:42.836Z,21.10
2018-05-07T22:44:12.564Z,21.00
2018-05-07T22:46:42.321Z,20.90
2018-05-07T22:49:13.518Z,21.10
2018-05-07T22:51:43.403Z,21.20
2018-05-07T22:54:13.074Z,21.50
2018-05-07T22:56:42.804Z,21.70
2018-05-07T22:59:12.633Z,21.80
2018-05-07T23:01:42.345Z,21.90
2018-05-07T23:04:12.143Z,21.80
2018-05-07T23:06:41.834Z,21.50
2018-05-07T23:11:45.080Z,21.90
2018-05-07T23:14:14.846Z,21.90
2018-05-07T23:16:44.617Z,22.10
2018-05-07T23:19:14.351Z,22.40
2018-05-07T23:21:44.085Z,22.40
2018-05-07T23:24:13.804Z,22.40
2018-05-07T23:26:43.495Z,22.40
2018-05-07T23:29:14.954Z,22.30
2018-05-07T23:31:44.763Z,21.90
2018-05-07T23:34:14.443Z,22.00
2018-05-07T23:36:45.175Z,22.20
2018-05-07T23:39:15.099Z,22.20
2018-05-07T23:41:45.093Z,22.20
2018-05-07T23:44:15.787Z,22.00
2018-05-07T23:46:45.631Z,22.00
2018-05-07T23:49:15.322Z,22.00
2018-05-07T23:51:44.973Z,22.00
2018-05-07T23:54:14.649Z,22.20
2018-05-07T23:56:44.310Z,22.20
2018-05-07T23:59:13.996Z,22.40
